Time;durP1;ratioP1;P1;durP2;ratioP2;P2;SDS_P1;SDS_P2;PMS_P1;PMS_P2;Temp;Humidity;BMP_temperature;BMP_pressure;BME280_temperature;BME280_humidity;BME280_pressure;Samples;Min_cycle;Max_cycle;Signal;HPM_P1;HPM_P2
2022/12/04 00:01:32;;;;;;;;;;;;;;;;;;5060260;28;19948;-73
2022/12/04 00:03:58;;;;;;;;;;;;;;;;;;5069260;28;20011;-74
2022/12/04 00:06:24;;;;;;;;;;;;;;;;;;5059914;28;19909;-73
2022/12/04 00:08:50;;;;;;;;;;;;;;;;;;5060772;28;19983;-73
2022/12/04 00:11:15;;;;;;;;;;;;;;;;;;5060120;28;20297;-74
2022/12/04 00:13:41;;;;;;;;;;;;;;;;;;5060140;28;20292;-73
2022/12/04 00:16:07;;;;;;;;;;;;;;;;;;5059848;28;19913;-74
2022/12/04 00:18:33;;;;;;;;;;;;;;;;;;5057396;28;19988;-73
2022/12/04 00:20:59;;;;;;;;;;;;;;;;;;5062055;28;19919;-74
2022/12/04 00:23:25;;;;;;;;;;;;;;;;;;5062873;28;19916;-73
2022/12/04 00:25:52;;;;;;;;;;;;;;;;;;5068049;28;20448;-73
2022/12/04 00:28:17;;;;;;;;;;;;;;;;;;5063671;28;20015;-73
2022/12/04 00:30:43;;;;;;;;;;;;;;;;;;5081008;28;19983;-74
2022/12/04 00:33:09;;;;;;;;;;;;;;;;;;5066235;28;19951;-74
2022/12/04 00:35:35;;;;;;;;;;;;;;;;;;5065877;28;19909;-73
2022/12/04 00:38:01;;;;;;;;;;;;;;;;;;5053866;28;19909;-73
2022/12/04 00:40:27;;;;;;;;;;;;;;;;;;5052635;28;19924;-74
2022/12/04 00:42:53;;;;;;;;;;;;;;;;;;5054177;28;20490;-74
2022/12/04 00:45:19;;;;;;;;;;;;;;;;;;5061214;28;19921;-74
2022/12/04 00:47:45;;;;;;;;;;;;;;;;;;5061608;28;19966;-74
2022/12/04 00:50:11;;;;;;;;;;;;;;;;;;5060127;28;20366;-73
2022/12/04 00:52:37;;;;;;;;;;;;;;;;;;5063168;28;19908;-74
2022/12/04 00:55:03;;;;;;;;;;;;;;;;;;5077843;28;19942;-74
2022/12/04 00:57:28;;;;;;;;;;;;;;;;;;5073322;28;20243;-73
2022/12/04 00:59:54;;;;;;;;;;;;;;;;;;5064757;28;19912;-73
2022/12/04 01:02:20;;;;;;;;;;;;;;;;;;5068566;28;19913;-73
2022/12/04 01:04:46;;;;;;;;;;;;;;;;;;5061298;28;19909;-74
2022/12/04 01:07:12;;;;;;;;;;;;;;;;;;5062277;28;20315;-74
2022/12/04 01:09:38;;;;;;;;;;;;;;;;;;5061987;28;19915;-74
2022/12/04 01:12:03;;;;;;;;;;;;;;;;;;5061539;28;19913;-74
2022/12/04 01:14:29;;;;;;;;;;;;;;;;;;5062057;28;19930;-73
2022/12/04 01:16:55;;;;;;;;;;;;;;;;;;5060411;28;19920;-73
2022/12/04 01:19:21;;;;;;;;;;;;;;;;;;5067750;28;19915;-73
2022/12/04 01:21:47;;;;;;;;;;;;;;;;;;5059845;28;19909;-74
2022/12/04 01:24:13;;;;;;;;;;;;;;;;;;5061654;28;19920;-73
2022/12/04 01:26:39;;;;;;;;;;;;;;;;;;5081171;28;20385;-73
2022/12/04 01:29:04;;;;;;;;;;;;;;;;;;5068562;28;20070;-74
2022/12/04 01:31:30;;;;;;;;;;;;;;;;;;5058827;28;19955;-73
2022/12/04 01:33:56;;;;;;;;;;;;;;;;;;5066497;28;19954;-73
2022/12/04 01:36:22;;;;;;;;;;;;;;;;;;5067850;28;19915;-73
2022/12/04 01:38:48;;;;;;;;;;;;;;;;;;5061003;28;19973;-73
2022/12/04 01:41:14;;;;;;;;;;;;;;;;;;5057679;28;19909;-74
2022/12/04 01:43:40;;;;;;;;;;;;;;;;;;5058778;28;20034;-74
2022/12/04 01:46:06;;;;;;;;;;;;;;;;;;5062425;28;20350;-74
2022/12/04 01:48:32;;;;;;;;;;;;;;;;;;5058482;28;19912;-74
2022/12/04 01:51:17;;;;;;;;;;;1.20;99.90;;;;;;5061109;28;20373;-73
2022/12/04 01:53:43;;;;;;;;;;;;;;;;;;5060513;28;19913;-73
2022/12/04 01:56:09;;;;;;;;;;;;;;;;;;5066877;28;19995;-73
2022/12/04 01:58:35;;;;;;;;;;;;;;;;;;5077831;28;19912;-73
2022/12/04 02:01:01;;;;;;;;;;;;;;;;;;5053668;28;19927;-73
2022/12/04 02:03:27;;;;;;;;;;;;;;;;;;5063006;28;20007;-74
2022/12/04 02:05:53;;;;;;;;;;;;;;;;;;5061736;28;19948;-73
2022/12/04 02:08:19;;;;;;;;;;;;;;;;;;5068890;28;19908;-74
2022/12/04 02:10:44;;;;;;;;;;;;;;;;;;5061480;28;20384;-74
2022/12/04 02:13:10;;;;;;;;;;;;;;;;;;5062788;28;19970;-73
2022/12/04 02:15:36;;;;;;;;;;;;;;;;;;5060446;28;19916;-74
2022/12/04 02:18:02;;;;;;;;;;;;;;;;;;5062673;28;19915;-74
2022/12/04 02:20:28;;;;;;;;;;;;;;;;;;5076036;28;19944;-73
2022/12/04 02:22:54;;;;;;;;;;;;;;;;;;5062291;28;19960;-73
2022/12/04 02:25:28;;;;;;;;;;;1.20;99.90;;;;;;5060953;28;19913;-73
2022/12/04 02:27:54;;;;;;;;;;;;;;;;;;5082693;28;20507;-73
2022/12/04 02:30:19;;;;;;;;;;;;;;;;;;5064329;28;19913;-73
2022/12/04 02:32:45;;;;;;;;;;;;;;;;;;5061807;28;20238;-73
2022/12/04 02:35:11;;;;;;;;;;;;;;;;;;5057540;28;19909;-73
2022/12/04 02:37:37;;;;;;;;;;;;;;;;;;5061659;28;19919;-74
2022/12/04 02:40:03;;;;;;;;;;;;;;;;;;5050864;28;19947;-73
2022/12/04 02:42:29;;;;;;;;;;;;;;;;;;5061565;28;19924;-73
2022/12/04 02:44:55;;;;;;;;;;;;;;;;;;5056752;28;19908;-74
2022/12/04 02:47:20;;;;;;;;;;;;;;;;;;5060831;28;19916;-73
2022/12/04 02:49:46;;;;;;;;;;;;;;;;;;5063904;28;19909;-73
2022/12/04 02:52:12;;;;;;;;;;;;;;;;;;5060860;28;20277;-74
2022/12/04 02:54:38;;;;;;;;;;;;;;;;;;5055931;28;20365;-73
2022/12/04 02:57:04;;;;;;;;;;;;;;;;;;5062586;28;19931;-73
2022/12/04 02:59:30;;;;;;;;;;;;;;;;;;5055418;28;19995;-73
2022/12/04 03:01:56;;;;;;;;;;;;;;;;;;5058923;28;19909;-73
2022/12/04 03:04:21;;;;;;;;;;;;;;;;;;5061312;28;19991;-73
2022/12/04 03:06:47;;;;;;;;;;;;;;;;;;5060811;28;20431;-73
2022/12/04 03:09:13;;;;;;;;;;;;;;;;;;5054769;28;19919;-73
2022/12/04 03:11:39;;;;;;;;;;;;;;;;;;5056610;28;20364;-73
2022/12/04 03:14:05;;;;;;;;;;;;;;;;;;5064929;28;19995;-73
2022/12/04 03:16:31;;;;;;;;;;;;;;;;;;5063594;28;19909;-73
2022/12/04 03:18:57;;;;;;;;;;;;;;;;;;5065628;28;19995;-73
2022/12/04 03:21:22;;;;;;;;;;;;;;;;;;5064456;28;19909;-73
2022/12/04 03:23:48;;;;;;;;;;;;;;;;;;5065279;28;20008;-73
2022/12/04 03:26:14;;;;;;;;;;;;;;;;;;5065486;28;19919;-73
2022/12/04 03:28:40;;;;;;;;;;;;;;;;;;5067821;28;19919;-74
2022/12/04 03:31:06;;;;;;;;;;;;;;;;;;5064169;28;19915;-73
2022/12/04 03:33:32;;;;;;;;;;;;;;;;;;5069724;28;19915;-73
2022/12/04 03:35:58;;;;;;;;;;;;;;;;;;5067490;28;20384;-73
2022/12/04 03:38:23;;;;;;;;;;;;;;;;;;5067942;28;19909;-74
2022/12/04 03:40:49;;;;;;;;;;;;;;;;;;5071839;28;19932;-73
2022/12/04 03:43:15;;;;;;;;;;;;;;;;;;5062539;28;20008;-73
2022/12/04 03:45:41;;;;;;;;;;;;;;;;;;5059428;28;20200;-73
2022/12/04 03:48:07;;;;;;;;;;;;;;;;;;5055633;28;19909;-73
2022/12/04 03:50:33;;;;;;;;;;;;;;;;;;5068554;28;19913;-73
2022/12/04 03:52:59;;;;;;;;;;;;;;;;;;5069766;28;19912;-73
2022/12/04 03:55:25;;;;;;;;;;;;;;;;;;5069109;28;19913;-73
2022/12/04 03:57:50;;;;;;;;;;;;;;;;;;5059045;28;19988;-73
2022/12/04 04:00:16;;;;;;;;;;;;;;;;;;5062265;28;19920;-73
2022/12/04 04:02:42;;;;;;;;;;;;;;;;;;5065401;28;19913;-73
2022/12/04 04:05:08;;;;;;;;;;;;;;;;;;5067325;28;20003;-73
2022/12/04 04:07:34;;;;;;;;;;;;;;;;;;5073023;28;19908;-73
2022/12/04 04:10:00;;;;;;;;;;;;;;;;;;5072721;28;20294;-73
2022/12/04 04:12:26;;;;;;;;;;;;;;;;;;5072938;28;19909;-73
2022/12/04 04:25:50;;;;;;;;;;;;;;;;;;5070350;28;19947;-76
2022/12/04 04:28:16;;;;;;;;;;;;;;;;;;5070283;28;19963;-74
2022/12/04 04:30:42;;;;;;;;;;;;;;;;;;5069957;28;19909;-74
2022/12/04 04:33:08;;;;;;;;;;;;;;;;;;5070637;28;20349;-74
2022/12/04 04:35:34;;;;;;;;;;;;;;;;;;5070568;28;20014;-74
2022/12/04 04:37:59;;;;;;;;;;;;;;;;;;5071915;28;19912;-74
2022/12/04 04:40:25;;;;;;;;;;;;;;;;;;5059195;28;20440;-74
2022/12/04 04:42:51;;;;;;;;;;;;;;;;;;5071836;28;19989;-75
2022/12/04 04:45:17;;;;;;;;;;;;;;;;;;5071750;28;19939;-74
2022/12/04 04:47:43;;;;;;;;;;;;;;;;;;5071137;28;19908;-74
2022/12/04 04:50:09;;;;;;;;;;;;;;;;;;5072316;28;20095;-74
2022/12/04 04:52:35;;;;;;;;;;;;;;;;;;5075437;28;19916;-74
2022/12/04 04:55:01;;;;;;;;;;;;;;;;;;5076420;28;19920;-74
2022/12/04 04:57:26;;;;;;;;;;;;;;;;;;5072399;28;20420;-74
2022/12/04 04:59:52;;;;;;;;;;;;;;;;;;5071447;28;20346;-74
2022/12/04 05:02:18;;;;;;;;;;;;;;;;;;5071893;28;19909;-74
2022/12/04 05:04:44;;;;;;;;;;;;;;;;;;5051959;28;20354;-74
2022/12/04 05:07:10;;;;;;;;;;;;;;;;;;5052096;28;19919;-74
2022/12/04 05:09:36;;;;;;;;;;;;;;;;;;5065611;28;20046;-74
2022/12/04 05:12:02;;;;;;;;;;;;;;;;;;5071095;28;20442;-74
2022/12/04 05:14:27;;;;;;;;;;;;;;;;;;5070721;28;19970;-74
2022/12/04 05:16:53;;;;;;;;;;;;;;;;;;5063097;28;19938;-74
2022/12/04 05:22:04;;;;;;;;;;;;;;;;;;5071521;28;20012;-74
2022/12/04 05:24:30;;;;;;;;;;;;;;;;;;5071940;28;20416;-74
2022/12/04 05:26:55;;;;;;;;;;;;;;;;;;5070470;28;19927;-74
2022/12/04 05:29:21;;;;;;;;;;;;;;;;;;5087007;28;19963;-74
2022/12/04 05:31:47;;;;;;;;;;;;;;;;;;5071081;28;19978;-74
2022/12/04 05:34:13;;;;;;;;;;;;;;;;;;5071366;28;20377;-74
2022/12/04 05:36:39;;;;;;;;;;;;;;;;;;5071057;28;19919;-74
2022/12/04 05:39:05;;;;;;;;;;;;;;;;;;5066931;28;19928;-74
2022/12/04 05:41:31;;;;;;;;;;;;;;;;;;5062076;28;19944;-74
2022/12/04 05:43:57;;;;;;;;;;;;;;;;;;5070987;28;19912;-75
2022/12/04 05:46:22;;;;;;;;;;;;;;;;;;5076819;28;19972;-74
2022/12/04 05:48:48;;;;;;;;;;;;;;;;;;5070496;28;19908;-74
2022/12/04 05:51:14;;;;;;;;;;;;;;;;;;5071235;28;20052;-75
2022/12/04 05:53:40;;;;;;;;;;;;;;;;;;5070014;28;19950;-74
2022/12/04 05:56:06;;;;;;;;;;;;;;;;;;5070319;28;19931;-74
2022/12/04 05:58:32;;;;;;;;;;;;;;;;;;5070844;28;19961;-74
2022/12/04 06:00:58;;;;;;;;;;;;;;;;;;5051700;28;20004;-74
2022/12/04 06:03:24;;;;;;;;;;;;;;;;;;5068017;28;19913;-74
2022/12/04 06:05:49;;;;;;;;;;;;;;;;;;5070456;28;19916;-74
2022/12/04 06:08:15;;;;;;;;;;;;;;;;;;5070414;28;20377;-74
2022/12/04 06:10:41;;;;;;;;;;;;;;;;;;5070235;28;19948;-74
2022/12/04 06:13:07;;;;;;;;;;;;;;;;;;5070504;28;19909;-74
2022/12/04 06:15:33;;;;;;;;;;;;;;;;;;5080217;28;20102;-74
2022/12/04 06:17:59;;;;;;;;;;;;;;;;;;5073276;28;19982;-73
2022/12/04 06:20:24;;;;;;;;;;;;;;;;;;5070520;28;19952;-74
2022/12/04 06:22:50;;;;;;;;;;;;;;;;;;5069486;28;19917;-74
2022/12/04 06:25:16;;;;;;;;;;;;;;;;;;5070438;28;19996;-73
2022/12/04 06:27:43;;;;;;;;;;;;;;;;;;5069711;28;19962;-73
2022/12/04 06:30:09;;;;;;;;;;;;;;;;;;5070441;28;19916;-73
2022/12/04 06:32:34;;;;;;;;;;;;;;;;;;5069972;28;19911;-73
2022/12/04 06:35:00;;;;;;;;;;;;;;;;;;5070116;28;19916;-73
2022/12/04 06:37:26;;;;;;;;;;;;;;;;;;5069596;28;19909;-73
2022/12/04 06:39:52;;;;;;;;;;;;;;;;;;5069488;28;19985;-73
2022/12/04 06:42:18;;;;;;;;;;;;;;;;;;5069879;28;19908;-73
2022/12/04 06:44:44;;;;;;;;;;;;;;;;;;5071777;28;19928;-74
2022/12/04 06:47:10;;;;;;;;;;;;;;;;;;5073102;28;19912;-73
2022/12/04 06:49:35;;;;;;;;;;;;;;;;;;5069957;28;19912;-73
2022/12/04 06:52:01;;;;;;;;;;;;;;;;;;5069273;28;20284;-73
2022/12/04 06:54:27;;;;;;;;;;;;;;;;;;5070108;28;19908;-73
2022/12/04 06:56:53;;;;;;;;;;;;;;;;;;5069444;28;19915;-73
2022/12/04 06:59:19;;;;;;;;;;;;;;;;;;5070149;28;19913;-74
2022/12/04 07:01:45;;;;;;;;;;;;;;;;;;5069386;28;19908;-73
2022/12/04 07:04:11;;;;;;;;;;;;;;;;;;5069858;28;19924;-73
2022/12/04 07:06:36;;;;;;;;;;;;;;;;;;5068792;28;20334;-73
2022/12/04 07:09:02;;;;;;;;;;;;;;;;;;5068705;28;19908;-73
2022/12/04 07:11:28;;;;;;;;;;;;;;;;;;5069617;28;19990;-73
2022/12/04 07:13:54;;;;;;;;;;;;;;;;;;5075351;28;20365;-73
2022/12/04 07:16:20;;;;;;;;;;;;;;;;;;5077724;28;19959;-73
2022/12/04 07:18:46;;;;;;;;;;;;;;;;;;5069364;28;19923;-73
2022/12/04 07:21:12;;;;;;;;;;;;;;;;;;5066110;28;19921;-73
2022/12/04 07:23:38;;;;;;;;;;;;;;;;;;5068906;28;20384;-73
2022/12/04 07:26:03;;;;;;;;;;;;;;;;;;5085028;28;19908;-73
2022/12/04 07:28:29;;;;;;;;;;;;;;;;;;5059865;28;19920;-73
2022/12/04 07:30:55;;;;;;;;;;;;;;;;;;5070419;28;19908;-73
2022/12/04 07:33:21;;;;;;;;;;;;;;;;;;5075292;28;19958;-73
2022/12/04 07:35:47;;;;;;;;;;;;;;;;;;5071862;28;20260;-73
2022/12/04 07:38:13;;;;;;;;;;;;;;;;;;5069282;28;19916;-72
2022/12/04 07:40:38;;;;;;;;;;;;;;;;;;5068986;28;19999;-73
2022/12/04 07:43:04;;;;;;;;;;;;;;;;;;5069551;28;20388;-74
2022/12/04 07:45:30;;;;;;;;;;;;;;;;;;5069342;28;19999;-73
2022/12/04 07:47:56;;;;;;;;;;;;;;;;;;5068656;28;19915;-68
2022/12/04 07:50:22;;;;;;;;;;;;;;;;;;5084275;28;19920;-68
2022/12/04 07:52:48;;;;;;;;;;;;;;;;;;5068687;28;20686;-69
2022/12/04 07:55:13;;;;;;;;;;;;;;;;;;5067397;28;19912;-69
2022/12/04 07:57:39;;;;;;;;;;;;;;;;;;5068862;28;19912;-68
2022/12/04 08:00:05;;;;;;;;;;;;;;;;;;5068693;28;19927;-69
2022/12/04 08:02:31;;;;;;;;;;;;;;;;;;5069019;28;19916;-70
2022/12/04 08:04:57;;;;;;;;;;;;;;;;;;5067819;28;19908;-68
2022/12/04 08:07:23;;;;;;;;;;;;;;;;;;5074073;28;19919;-69
2022/12/04 08:09:49;;;;;;;;;;;;;;;;;;5067669;28;19919;-68
2022/12/04 08:12:14;;;;;;;;;;;;;;;;;;5072200;28;20377;-69
2022/12/04 08:14:40;;;;;;;;;;;;;;;;;;5068386;28;19999;-68
2022/12/04 08:17:06;;;;;;;;;;;;;;;;;;5068874;28;19908;-69
2022/12/04 08:19:32;;;;;;;;;;;;;;;;;;5069788;28;20007;-69
2022/12/04 08:21:58;;;;;;;;;;;;;;;;;;5071987;28;20642;-69
2022/12/04 08:24:24;;;;;;;;;;;;;;;;;;5071909;28;20018;-70
2022/12/04 08:26:49;;;;;;;;;;;;;;;;;;5072128;28;19912;-68
2022/12/04 08:29:15;;;;;;;;;;;;;;;;;;5071943;28;20090;-68
2022/12/04 08:31:41;;;;;;;;;;;;;;;;;;5071922;28;20304;-68
2022/12/04 08:34:07;;;;;;;;;;;;;;;;;;5071734;28;19994;-68
2022/12/04 08:36:33;;;;;;;;;;;;;;;;;;5072149;28;19912;-68
2022/12/04 08:38:59;;;;;;;;;;;;;;;;;;5071660;28;19921;-68
2022/12/04 08:41:25;;;;;;;;;;;;;;;;;;5071936;28;19912;-68
2022/12/04 08:43:53;;;;;;;;;;;;;;;;;;5069262;28;20054;-70
2022/12/04 08:46:19;;;;;;;;;;;;;;;;;;5071306;28;19908;-68
2022/12/04 08:48:45;;;;;;;;;;;;;;;;;;5070615;28;19908;-68
2022/12/04 08:51:10;;;;;;;;;;;;;;;;;;5071519;28;20343;-68
2022/12/04 08:53:36;;;;;;;;;;;;;;;;;;5071188;28;19938;-68
2022/12/04 08:56:02;;;;;;;;;;;;;;;;;;5076126;28;20051;-68
2022/12/04 08:58:28;;;;;;;;;;;;;;;;;;5071963;28;19930;-68
2022/12/04 09:00:54;;;;;;;;;;;;;;;;;;5086352;28;19966;-68
2022/12/04 09:03:20;;;;;;;;;;;;;;;;;;5071319;28;19967;-68
2022/12/04 09:05:46;;;;;;;;;;;;;;;;;;5058153;28;19934;-68
2022/12/04 09:08:11;;;;;;;;;;;;;;;;;;5071574;28;19967;-68
2022/12/04 09:10:37;;;;;;;;;;;;;;;;;;5071571;28;19908;-68
2022/12/04 09:13:03;;;;;;;;;;;;;;;;;;5070844;28;19987;-68
2022/12/04 09:15:29;;;;;;;;;;;;;;;;;;5069251;28;19913;-68
2022/12/04 09:17:55;;;;;;;;;;;;;;;;;;5070319;28;20539;-68
2022/12/04 09:20:21;;;;;;;;;;;;;;;;;;5072416;28;19928;-68
2022/12/04 09:22:47;;;;;;;;;;;;;;;;;;5076005;28;19918;-68
2022/12/04 09:25:13;;;;;;;;;;;;;;;;;;5071263;28;19968;-68
2022/12/04 09:27:42;;;;;;;;;;;;;;;;;;5070734;28;19970;-68
2022/12/04 09:30:08;;;;;;;;;;;;;;;;;;5084859;28;19930;-68
2022/12/04 09:32:34;;;;;;;;;;;;;;;;;;5069581;28;20416;-68
2022/12/04 09:34:59;;;;;;;;;;;;;;;;;;5070172;28;19916;-68
2022/12/04 09:37:25;;;;;;;;;;;;;;;;;;5070799;28;19909;-68
2022/12/04 09:39:51;;;;;;;;;;;;;;;;;;5060181;28;19970;-68
2022/12/04 09:42:17;;;;;;;;;;;;;;;;;;5064049;28;20439;-68
2022/12/04 09:44:43;;;;;;;;;;;;;;;;;;5060440;28;20001;-68
2022/12/04 09:47:09;;;;;;;;;;;;;;;;;;5069867;28;19919;-68
2022/12/04 09:49:34;;;;;;;;;;;;;;;;;;5070653;28;19916;-68
2022/12/04 09:52:00;;;;;;;;;;;;;;;;;;5069988;28;19957;-68
2022/12/04 09:54:26;;;;;;;;;;;;;;;;;;5080999;28;19935;-68
2022/12/04 09:56:52;;;;;;;;;;;;;;;;;;5070110;28;19991;-68
2022/12/04 09:59:18;;;;;;;;;;;;;;;;;;5070488;28;19908;-68
2022/12/04 10:01:44;;;;;;;;;;;;;;;;;;5069511;28;19909;-68
2022/12/04 10:04:10;;;;;;;;;;;;;;;;;;5070469;28;19931;-68
2022/12/04 10:06:36;;;;;;;;;;;;;;;;;;5070211;28;19916;-68
2022/12/04 10:09:01;;;;;;;;;;;;;;;;;;5059424;28;19909;-68
2022/12/04 10:11:27;;;;;;;;;;;;;;;;;;5067732;28;19992;-68
2022/12/04 10:13:53;;;;;;;;;;;;;;;;;;5069700;28;20082;-68
2022/12/04 10:16:19;;;;;;;;;;;;;;;;;;5069673;28;19913;-68
2022/12/04 10:18:45;;;;;;;;;;;;;;;;;;5069927;28;19909;-68
2022/12/04 10:21:11;;;;;;;;;;;;;;;;;;5070179;28;19947;-68
2022/12/04 10:23:37;;;;;;;;;;;;;;;;;;5079530;28;19920;-69
2022/12/04 10:26:03;;;;;;;;;;;;;;;;;;5072452;28;19920;-68
2022/12/04 10:28:29;;;;;;;;;;;;;;;;;;5069261;28;19942;-68
2022/12/04 10:30:55;;;;;;;;;;;;;;;;;;5068055;28;19932;-68
2022/12/04 10:33:20;;;;;;;;;;;;;;;;;;5069974;28;19908;-68
2022/12/04 10:35:46;;;;;;;;;;;;;;;;;;5069522;28;20326;-69
2022/12/04 10:38:12;;;;;;;;;;;;;;;;;;5059942;28;19942;-68
2022/12/04 10:40:38;;;;;;;;;;;;;;;;;;5056218;28;19913;-68
2022/12/04 10:43:04;;;;;;;;;;;;;;;;;;5084452;28;20002;-68
2022/12/04 10:45:30;;;;;;;;;;;;;;;;;;5069706;28;19912;-68
2022/12/04 10:47:56;;;;;;;;;;;;;;;;;;5069605;28;19919;-68
2022/12/04 10:50:22;;;;;;;;;;;;;;;;;;5085159;28;20262;-68
2022/12/04 10:52:47;;;;;;;;;;;;;;;;;;5074074;28;19912;-68
2022/12/04 10:55:14;;;;;;;;;;;;;;;;;;5072535;28;19975;-68
2022/12/04 10:57:40;;;;;;;;;;;;;;;;;;5068845;28;19913;-68
2022/12/04 11:00:05;;;;;;;;;;;;;;;;;;5069563;28;19923;-68
2022/12/04 11:02:31;;;;;;;;;;;;;;;;;;5069657;28;20006;-68
2022/12/04 11:04:57;;;;;;;;;;;;;;;;;;5069099;28;20321;-68
2022/12/04 11:07:23;;;;;;;;;;;;;;;;;;5069655;28;19909;-68
2022/12/04 11:09:49;;;;;;;;;;;;;;;;;;5055809;28;19908;-68
2022/12/04 11:12:15;;;;;;;;;;;;;;;;;;5069207;28;19909;-68
2022/12/04 11:14:41;;;;;;;;;;;;;;;;;;5068782;28;19989;-68
2022/12/04 11:17:07;;;;;;;;;;;;;;;;;;5068860;28;20281;-68
2022/12/04 11:19:33;;;;;;;;;;;;;;;;;;5068911;28;20035;-68
2022/12/04 11:21:59;;;;;;;;;;;;;;;;;;5069186;28;19921;-68
2022/12/04 11:24:25;;;;;;;;;;;;;;;;;;5070425;28;20323;-68
2022/12/04 11:26:51;;;;;;;;;;;;;;;;;;5072789;28;19919;-68
2022/12/04 11:29:16;;;;;;;;;;;;;;;;;;5069101;28;19909;-69
2022/12/04 11:31:42;;;;;;;;;;;;;;;;;;5068754;28;19996;-68
2022/12/04 11:34:08;;;;;;;;;;;;;;;;;;5072474;28;19912;-69
2022/12/04 11:36:34;;;;;;;;;;;;;;;;;;5070116;28;19908;-68
2022/12/04 11:39:00;;;;;;;;;;;;;;;;;;5065334;28;19985;-69
2022/12/04 11:41:26;;;;;;;;;;;;;;;;;;5050720;28;19932;-68
2022/12/04 11:43:52;;;;;;;;;;;;;;;;;;5053615;28;19928;-68
2022/12/04 11:46:17;;;;;;;;;;;;;;;;;;5051456;28;19909;-67
2022/12/04 11:48:43;;;;;;;;;;;;;;;;;;5053043;28;19926;-68
2022/12/04 11:51:09;;;;;;;;;;;;;;;;;;5058706;28;19912;-68
2022/12/04 11:53:35;;;;;;;;;;;;;;;;;;5063881;28;19909;-68
2022/12/04 11:56:01;;;;;;;;;;;;;;;;;;5069638;28;19912;-68
2022/12/04 11:58:27;;;;;;;;;;;;;;;;;;5067583;28;20018;-68
2022/12/04 12:00:53;;;;;;;;;;;;;;;;;;5069123;28;19912;-68
2022/12/04 12:03:19;;;;;;;;;;;;;;;;;;5079239;28;19916;-68
2022/12/04 12:05:44;;;;;;;;;;;;;;;;;;5080806;28;19936;-68
2022/12/04 12:08:10;;;;;;;;;;;;;;;;;;5072411;28;19936;-68
2022/12/04 12:10:36;;;;;;;;;;;;;;;;;;5072022;28;19962;-68
2022/12/04 12:13:02;;;;;;;;;;;;;;;;;;5072240;28;19928;-68
2022/12/04 12:15:28;;;;;;;;;;;;;;;;;;5072837;28;20341;-68
2022/12/04 12:17:54;;;;;;;;;;;;;;;;;;5071939;28;19912;-68
2022/12/04 12:20:19;;;;;;;;;;;;;;;;;;5072289;28;19912;-68
2022/12/04 12:22:45;;;;;;;;;;;;;;;;;;5071669;28;19912;-68
2022/12/04 12:25:11;;;;;;;;;;;;;;;;;;5072187;28;20336;-68
2022/12/04 12:27:37;;;;;;;;;;;;;;;;;;5072022;28;19916;-68
2022/12/04 12:30:03;;;;;;;;;;;;;;;;;;5080771;28;19923;-68
2022/12/04 12:32:29;;;;;;;;;;;;;;;;;;5074186;28;19908;-68
2022/12/04 12:34:55;;;;;;;;;;;;;;;;;;5071842;28;20408;-68
2022/12/04 12:37:21;;;;;;;;;;;;;;;;;;5072248;28;19909;-67
2022/12/04 12:39:47;;;;;;;;;;;;;;;;;;5061614;28;19916;-68
2022/12/04 12:42:13;;;;;;;;;;;;;;;;;;5068047;28;19962;-68
2022/12/04 12:44:38;;;;;;;;;;;;;;;;;;5071510;28;19974;-68
2022/12/04 12:47:06;;;;;;;;;;;;;;;;;;5071852;28;19920;-68
2022/12/04 12:49:32;;;;;;;;;;;;;;;;;;5072073;28;19908;-68
2022/12/04 12:51:58;;;;;;;;;;;;;;;;;;5071313;28;19917;-68
2022/12/04 12:54:24;;;;;;;;;;;;;;;;;;5071599;28;20003;-69
2022/12/04 12:56:50;;;;;;;;;;;;;;;;;;5071319;28;20407;-68
2022/12/04 12:59:16;;;;;;;;;;;;;;;;;;5073254;28;19931;-68
2022/12/04 13:01:41;;;;;;;;;;;;;;;;;;5076896;28;19919;-69
2022/12/04 13:04:07;;;;;;;;;;;;;;;;;;5071764;28;20061;-68
2022/12/04 13:06:33;;;;;;;;;;;;;;;;;;5071166;28;20569;-68
2022/12/04 13:08:59;;;;;;;;;;;;;;;;;;5068535;28;19908;-68
2022/12/04 13:11:25;;;;;;;;;;;;;;;;;;5060636;28;19908;-68
2022/12/04 13:13:51;;;;;;;;;;;;;;;;;;5071232;28;19912;-68
2022/12/04 13:16:17;;;;;;;;;;;;;;;;;;5071782;28;20277;-68
2022/12/04 13:18:43;;;;;;;;;;;;;;;;;;5070939;28;19908;-67
2022/12/04 13:21:09;;;;;;;;;;;;;;;;;;5071534;28;19915;-68
2022/12/04 13:23:35;;;;;;;;;;;;;;;;;;5070597;28;19920;-68
2022/12/04 13:26:01;;;;;;;;;;;;;;;;;;5070919;28;19919;-68
2022/12/04 13:28:27;;;;;;;;;;;;;;;;;;5065054;28;20275;-68
2022/12/04 13:30:52;;;;;;;;;;;;;;;;;;5072994;28;19966;-69
2022/12/04 13:33:18;;;;;;;;;;;;;;;;;;5071163;28;19909;-68
2022/12/04 13:35:44;;;;;;;;;;;;;;;;;;5070541;28;19951;-68
2022/12/04 13:38:10;;;;;;;;;;;;;;;;;;5078556;28;20388;-68
2022/12/04 13:40:36;;;;;;;;;;;;;;;;;;5057483;28;19952;-68
2022/12/04 13:43:02;;;;;;;;;;;;;;;;;;5070341;28;20015;-68
2022/12/04 13:45:28;;;;;;;;;;;;;;;;;;5070620;28;19920;-69
2022/12/04 13:47:53;;;;;;;;;;;;;;;;;;5073282;28;19917;-68
2022/12/04 13:50:19;;;;;;;;;;;;;;;;;;5071876;28;20383;-68
2022/12/04 13:52:47;;;;;;;;;;;;;;;;;;5069288;28;19915;-68
2022/12/04 13:55:13;;;;;;;;;;;;;;;;;;5071104;28;19921;-68
2022/12/04 13:57:39;;;;;;;;;;;;;;;;;;5069612;28;19966;-68
2022/12/04 14:00:05;;;;;;;;;;;;;;;;;;5070393;28;20391;-68
2022/12/04 14:02:34;;;;;;;;;;;;;;;;;;5076401;28;20361;-68
2022/12/04 14:04:59;;;;;;;;;;;;;;;;;;5070427;28;19916;-68
2022/12/04 14:07:25;;;;;;;;;;;;;;;;;;5073328;28;19966;-68
2022/12/04 14:09:52;;;;;;;;;;;;;;;;;;5073827;28;20250;-69
2022/12/04 14:12:18;;;;;;;;;;;;;;;;;;5072555;28;19917;-68
2022/12/04 14:14:44;;;;;;;;;;;;;;;;;;5070350;28;19909;-68
2022/12/04 14:17:09;;;;;;;;;;;;;;;;;;5069509;28;19913;-68
2022/12/04 14:19:35;;;;;;;;;;;;;;;;;;5069651;28;20015;-68
2022/12/04 14:22:01;;;;;;;;;;;;;;;;;;5071721;28;19913;-68
2022/12/04 14:24:27;;;;;;;;;;;;;;;;;;5051768;28;19927;-68
2022/12/04 14:26:53;;;;;;;;;;;;;;;;;;5069635;28;19909;-68
2022/12/04 14:29:19;;;;;;;;;;;;;;;;;;5069815;28;20288;-68
2022/12/04 14:31:44;;;;;;;;;;;;;;;;;;5069465;28;19908;-68
2022/12/04 14:34:10;;;;;;;;;;;;;;;;;;5069870;28;19996;-68
2022/12/04 14:36:36;;;;;;;;;;;;;;;;;;5069245;28;19909;-68
2022/12/04 14:39:02;;;;;;;;;;;;;;;;;;5065916;28;20293;-68
2022/12/04 14:41:28;;;;;;;;;;;;;;;;;;5059974;28;20289;-68
2022/12/04 14:43:54;;;;;;;;;;;;;;;;;;5068894;28;20009;-69
2022/12/04 14:46:21;;;;;;;;;;;;;;;;;;5069413;28;20336;-68
2022/12/04 14:48:46;;;;;;;;;;;;;;;;;;5068936;28;19916;-68
2022/12/04 14:51:12;;;;;;;;;;;;;;;;;;5072768;28;19935;-68
2022/12/04 14:53:38;;;;;;;;;;;;;;;;;;5068275;28;19967;-68
2022/12/04 14:56:04;;;;;;;;;;;;;;;;;;5072107;28;19912;-68
2022/12/04 14:58:30;;;;;;;;;;;;;;;;;;5071056;28;19912;-68
2022/12/04 15:00:56;;;;;;;;;;;;;;;;;;5069038;28;20122;-68
2022/12/04 15:03:22;;;;;;;;;;;;;;;;;;5072902;28;19912;-68
2022/12/04 15:05:48;;;;;;;;;;;;;;;;;;5068296;28;19974;-68
2022/12/04 15:08:14;;;;;;;;;;;;;;;;;;5067997;28;19927;-68
2022/12/04 15:13:24;;;;;;;;;;;;;;;;;;5067210;28;19931;-68
2022/12/04 15:15:50;;;;;;;;;;;;;;;;;;5068060;28;20369;-68
2022/12/04 15:18:16;;;;;;;;;;;;;;;;;;5069517;28;19999;-69
2022/12/04 15:20:42;;;;;;;;;;;;;;;;;;5068163;28;19913;-68
2022/12/04 15:23:08;;;;;;;;;;;;;;;;;;5069014;28;20384;-69
2022/12/04 15:25:33;;;;;;;;;;;;;;;;;;5069278;28;19908;-69
2022/12/04 15:27:59;;;;;;;;;;;;;;;;;;5070737;28;19920;-69
2022/12/04 15:30:25;;;;;;;;;;;;;;;;;;5073339;28;19930;-69
2022/12/04 15:32:51;;;;;;;;;;;;;;;;;;5072515;28;19952;-68
2022/12/04 15:35:17;;;;;;;;;;;;;;;;;;5070230;28;19908;-68
2022/12/04 15:37:43;;;;;;;;;;;;;;;;;;5059089;28;19920;-69
2022/12/04 15:40:10;;;;;;;;;;;;;;;;;;5059823;28;20363;-68
2022/12/04 15:42:48;;;;;;;;;;;;;;;;;;5064233;28;19958;-69
2022/12/04 15:45:14;;;;;;;;;;;;;;;;;;5075203;28;19948;-69
2022/12/04 15:47:40;;;;;;;;;;;;;;;;;;5062757;28;19947;-68
2022/12/04 15:50:06;;;;;;;;;;;;;;;;;;5072721;28;19916;-70
2022/12/04 15:52:31;;;;;;;;;;;;;;;;;;5061710;28;19952;-70
2022/12/04 15:54:57;;;;;;;;;;;;;;;;;;5071831;28;20316;-70
2022/12/04 15:57:23;;;;;;;;;;;;;;;;;;5071876;28;19967;-70
2022/12/04 15:59:49;;;;;;;;;;;;;;;;;;5064546;28;19937;-70
2022/12/04 16:02:15;;;;;;;;;;;;;;;;;;5061648;28;19919;-70
2022/12/04 16:04:41;;;;;;;;;;;;;;;;;;5066420;28;20003;-70
2022/12/04 16:07:07;;;;;;;;;;;;;;;;;;5061975;28;20007;-70
2022/12/04 16:09:33;;;;;;;;;;;;;;;;;;5067009;28;20358;-70
2022/12/04 16:11:59;;;;;;;;;;;;;;;;;;5061171;28;19920;-70
2022/12/04 16:14:25;;;;;;;;;;;;;;;;;;5073916;28;19999;-70
2022/12/04 16:16:51;;;;;;;;;;;;;;;;;;5059503;28;20311;-71
2022/12/04 16:19:17;;;;;;;;;;;;;;;;;;5080970;28;20004;-70
2022/12/04 16:21:43;;;;;;;;;;;;;;;;;;5064187;28;19913;-70
2022/12/04 16:24:09;;;;;;;;;;;;;;;;;;5067271;28;19927;-70
2022/12/04 16:26:35;;;;;;;;;;;;;;;;;;5075421;28;19919;-71
2022/12/04 16:29:01;;;;;;;;;;;;;;;;;;5072966;28;19916;-70
2022/12/04 16:31:27;;;;;;;;;;;;;;;;;;5072495;28;19918;-68
2022/12/04 16:33:52;;;;;;;;;;;;;;;;;;5058190;28;19919;-71
2022/12/04 16:36:18;;;;;;;;;;;;;;;;;;5072144;28;20427;-70
2022/12/04 16:38:44;;;;;;;;;;;;;;;;;;5071935;28;19927;-70
2022/12/04 16:41:10;;;;;;;;;;;;;;;;;;5083872;28;19916;-70
2022/12/04 16:43:36;;;;;;;;;;;;;;;;;;5071686;28;19958;-71
2022/12/04 16:46:02;;;;;;;;;;;;;;;;;;5071301;28;19958;-70
2022/12/04 16:48:30;;;;;;;;;;;;;;;;;;5071578;28;20384;-70
2022/12/04 16:50:56;;;;;;;;;;;;;;;;;;5071434;28;19909;-71